sensor_id;sensor_type;location;lat;lon;timestamp;temperature;humidity
11684;DHT22;5898;50.868;6.744;2022-07-11T20:39:28;17.80;99.90
11684;DHT22;5898;50.868;6.744;2022-07-11T20:41:55;17.70;99.90
11684;DHT22;5898;50.868;6.744;2022-07-11T20:44:22;17.70;99.90
11684;DHT22;5898;50.868;6.744;2022-07-11T20:46:48;17.60;99.90
11684;DHT22;5898;50.868;6.744;2022-07-11T20:49:15;17.60;99.90
11684;DHT22;5898;50.868;6.744;2022-07-11T20:51:42;17.50;99.90
11684;DHT22;5898;50.868;6.744;2022-07-11T20:54:09;17.50;99.90
11684;DHT22;5898;50.868;6.744;2022-07-11T20:56:37;17.50;99.90
11684;DHT22;5898;50.868;6.744;2022-07-11T20:59:04;17.50;99.90
11684;DHT22;5898;50.868;6.744;2022-07-11T21:01:31;17.50;99.90
11684;DHT22;5898;50.868;6.744;2022-07-11T21:03:58;17.30;99.90
11684;DHT22;5898;50.868;6.744;2022-07-11T21:06:24;17.20;99.90
11684;DHT22;5898;50.868;6.744;2022-07-11T21:08:51;17.30;99.90
11684;DHT22;5898;50.868;6.744;2022-07-11T21:11:18;17.20;99.90
11684;DHT22;5898;50.868;6.744;2022-07-11T21:13:46;17.20;99.90
11684;DHT22;5898;50.868;6.744;2022-07-11T21:16:13;17.20;99.90
11684;DHT22;5898;50.868;6.744;2022-07-11T21:18:40;17.10;99.90
11684;DHT22;5898;50.868;6.744;2022-07-11T21:21:06;17.00;99.90
11684;DHT22;5898;50.868;6.744;2022-07-11T21:23:33;17.10;99.90
11684;DHT22;5898;50.868;6.744;2022-07-11T21:26:00;17.10;99.90
11684;DHT22;5898;50.868;6.744;2022-07-11T21:28:27;17.00;99.90
11684;DHT22;5898;50.868;6.744;2022-07-11T21:30:55;17.00;99.90
11684;DHT22;5898;50.868;6.744;2022-07-11T21:33:22;17.00;99.90
11684;DHT22;5898;50.868;6.744;2022-07-11T21:35:48;16.90;99.90
11684;DHT22;5898;50.868;6.744;2022-07-11T21:38:15;16.90;99.90
11684;DHT22;5898;50.868;6.744;2022-07-11T21:40:42;16.90;99.90
11684;DHT22;5898;50.868;6.744;2022-07-11T21:43:09;16.90;99.90
11684;DHT22;5898;50.868;6.744;2022-07-11T21:45:36;16.80;99.90
11684;DHT22;5898;50.868;6.744;2022-07-11T21:48:04;16.80;99.90
11684;DHT22;5898;50.868;6.744;2022-07-11T21:50:31;16.80;99.90
11684;DHT22;5898;50.868;6.744;2022-07-11T21:52:59;16.70;99.90
11684;DHT22;5898;50.868;6.744;2022-07-11T21:55:26;16.60;99.90
11684;DHT22;5898;50.868;6.744;2022-07-11T21:57:53;16.60;99.90
11684;DHT22;5898;50.868;6.744;2022-07-11T22:00:19;16.60;99.90
11684;DHT22;5898;50.868;6.744;2022-07-11T22:02:48;16.50;99.90
11684;DHT22;5898;50.868;6.744;2022-07-11T22:05:16;16.50;99.90
11684;DHT22;5898;50.868;6.744;2022-07-11T22:07:43;16.40;99.90
11684;DHT22;5898;50.868;6.744;2022-07-11T22:10:10;16.40;99.90
11684;DHT22;5898;50.868;6.744;2022-07-11T22:12:37;16.40;99.90
11684;DHT22;5898;50.868;6.744;2022-07-11T22:15:04;16.40;99.90
11684;DHT22;5898;50.868;6.744;2022-07-11T22:17:31;16.30;99.90
11684;DHT22;5898;50.868;6.744;2022-07-11T22:19:58;16.30;99.90
11684;DHT22;5898;50.868;6.744;2022-07-11T22:22:26;16.20;99.90
11684;DHT22;5898;50.868;6.744;2022-07-11T22:24:53;16.20;99.90
11684;DHT22;5898;50.868;6.744;2022-07-11T22:27:20;16.20;99.90
11684;DHT22;5898;50.868;6.744;2022-07-11T22:29:46;16.20;99.90
11684;DHT22;5898;50.868;6.744;2022-07-11T22:32:13;16.20;99.90
11684;DHT22;5898;50.868;6.744;2022-07-11T22:34:40;16.20;99.90
11684;DHT22;5898;50.868;6.744;2022-07-11T22:37:07;16.20;99.90
11684;DHT22;5898;50.868;6.744;2022-07-11T22:39:35;16.20;99.90
11684;DHT22;5898;50.868;6.744;2022-07-11T22:42:02;16.10;99.90
11684;DHT22;5898;50.868;6.744;2022-07-11T22:44:29;16.20;99.90
11684;DHT22;5898;50.868;6.744;2022-07-11T22:46:56;16.10;99.90
11684;DHT22;5898;50.868;6.744;2022-07-11T22:49:23;16.20;99.90
11684;DHT22;5898;50.868;6.744;2022-07-11T22:51:49;16.00;99.90
11684;DHT22;5898;50.868;6.744;2022-07-11T22:54:16;16.00;99.90
11684;DHT22;5898;50.868;6.744;2022-07-11T22:56:45;16.00;99.90
11684;DHT22;5898;50.868;6.744;2022-07-11T22:59:12;16.00;99.90
11684;DHT22;5898;50.868;6.744;2022-07-11T23:01:39;15.90;99.90
11684;DHT22;5898;50.868;6.744;2022-07-11T23:04:06;15.90;99.90
11684;DHT22;5898;50.868;6.744;2022-07-11T23:06:32;15.90;99.90
11684;DHT22;5898;50.868;6.744;2022-07-11T23:08:59;15.90;99.90
11684;DHT22;5898;50.868;6.744;2022-07-11T23:11:26;15.80;99.90
11684;DHT22;5898;50.868;6.744;2022-07-11T23:13:54;15.80;99.90
11684;DHT22;5898;50.868;6.744;2022-07-11T23:16:21;15.70;99.90
11684;DHT22;5898;50.868;6.744;2022-07-11T23:18:47;15.70;99.90
11684;DHT22;5898;50.868;6.744;2022-07-11T23:21:14;15.70;99.90
11684;DHT22;5898;50.868;6.744;2022-07-11T23:23:46;15.70;99.90
11684;DHT22;5898;50.868;6.744;2022-07-11T23:26:12;15.70;99.90
11684;DHT22;5898;50.868;6.744;2022-07-11T23:28:39;15.70;99.90
11684;DHT22;5898;50.868;6.744;2022-07-11T23:31:07;15.70;99.90
11684;DHT22;5898;50.868;6.744;2022-07-11T23:33:34;15.50;99.90
11684;DHT22;5898;50.868;6.744;2022-07-11T23:36:01;15.70;99.90
11684;DHT22;5898;50.868;6.744;2022-07-11T23:38:28;15.70;99.90
11684;DHT22;5898;50.868;6.744;2022-07-11T23:40:55;15.60;99.90
11684;DHT22;5898;50.868;6.744;2022-07-11T23:43:21;15.60;99.90
11684;DHT22;5898;50.868;6.744;2022-07-11T23:45:48;15.50;99.90
11684;DHT22;5898;50.868;6.744;2022-07-11T23:48:16;15.60;99.90
11684;DHT22;5898;50.868;6.744;2022-07-11T23:50:43;15.50;99.90
11684;DHT22;5898;50.868;6.744;2022-07-11T23:53:10;15.50;99.90
11684;DHT22;5898;50.868;6.744;2022-07-11T23:55:36;15.50;99.90
11684;DHT22;5898;50.868;6.744;2022-07-11T23:58:03;15.40;99.90
